createdAt,value
2023-02-27T00:02:34.317Z,-0.30
2023-02-27T00:06:37.417Z,-0.30
2023-02-27T00:10:40.446Z,-0.40
2023-02-27T00:14:44.614Z,-0.40
2023-02-27T00:22:51.980Z,-0.50
2023-02-27T00:26:54.776Z,-0.50
2023-02-27T00:30:59.016Z,-0.60
2023-02-27T00:35:02.140Z,-0.60
2023-02-27T00:39:04.982Z,-0.60
2023-02-27T00:43:07.791Z,-0.60
2023-02-27T00:47:11.943Z,-0.60
2023-02-27T00:51:14.960Z,-0.70
2023-02-27T00:55:17.863Z,-0.70
2023-02-27T00:59:20.925Z,-0.80
2023-02-27T01:03:25.214Z,-0.80
2023-02-27T01:07:28.049Z,-0.80
2023-02-27T01:11:31.039Z,-0.80
2023-02-27T01:15:33.900Z,-0.90
2023-02-27T01:19:38.022Z,-0.90
2023-02-27T01:23:40.819Z,-0.90
2023-02-27T01:27:43.646Z,-0.90
2023-02-27T01:31:46.607Z,-0.90
2023-02-27T01:35:50.744Z,-1.00
2023-02-27T01:39:53.544Z,-1.00
2023-02-27T01:44:00.265Z,-1.00
2023-02-27T01:48:06.301Z,-1.10
2023-02-27T01:52:12.103Z,-1.10
2023-02-27T01:56:17.469Z,-1.10
2023-02-27T02:00:20.634Z,-1.10
2023-02-27T02:04:25.888Z,-1.10
2023-02-27T02:08:32.033Z,-1.00
2023-02-27T02:12:35.933Z,-1.10
2023-02-27T02:16:45.084Z,-1.10
2023-02-27T02:21:06.819Z,-1.10
2023-02-27T02:25:24.526Z,-1.10
2023-02-27T02:29:44.487Z,-1.10
2023-02-27T02:34:01.218Z,-1.20
2023-02-27T02:38:32.893Z,-1.20
2023-02-27T02:42:38.441Z,-1.20
2023-02-27T02:46:46.287Z,-1.30
2023-02-27T02:50:51.320Z,-1.30
2023-02-27T02:54:59.065Z,-1.30
2023-02-27T02:59:06.227Z,-1.30
2023-02-27T03:03:11.196Z,-1.40
2023-02-27T03:07:16.786Z,-1.40
2023-02-27T03:11:19.804Z,-1.40
2023-02-27T03:15:26.677Z,-1.50
2023-02-27T03:19:32.122Z,-1.50
2023-02-27T03:23:37.129Z,-1.60
2023-02-27T03:27:41.780Z,-1.60
2023-02-27T03:31:48.732Z,-1.70
2023-02-27T03:35:54.396Z,-1.70
2023-02-27T03:40:01.538Z,-1.70
2023-02-27T03:44:06.615Z,-1.80
2023-02-27T03:48:10.834Z,-1.80
2023-02-27T03:52:13.672Z,-1.80
2023-02-27T03:56:17.750Z,-1.80
2023-02-27T04:00:21.240Z,-1.80
2023-02-27T04:04:28.655Z,-1.80
2023-02-27T04:08:40.366Z,-1.90
2023-02-27T04:12:54.138Z,-1.80
2023-02-27T04:17:01.760Z,-1.90
2023-02-27T04:21:09.452Z,-1.90
2023-02-27T04:25:22.525Z,-1.90
2023-02-27T04:29:31.433Z,-1.90
2023-02-27T04:33:41.038Z,-2.00
2023-02-27T04:37:47.265Z,-2.00
2023-02-27T04:41:52.971Z,-2.00
2023-02-27T04:45:57.141Z,-2.10
2023-02-27T04:50:02.544Z,-2.10
2023-02-27T04:54:09.312Z,-2.20
2023-02-27T04:58:13.694Z,-2.20
2023-02-27T05:02:18.256Z,-2.20
2023-02-27T05:06:25.918Z,-2.30
2023-02-27T05:10:33.430Z,-2.30
2023-02-27T05:14:38.097Z,-2.40
2023-02-27T05:18:40.902Z,-2.40
2023-02-27T05:22:54.135Z,-2.40
2023-02-27T05:27:14.812Z,-2.50
2023-02-27T05:31:22.515Z,-2.50
2023-02-27T05:35:29.071Z,-2.50
2023-02-27T05:39:34.095Z,-2.50
2023-02-27T05:43:38.145Z,-2.50
2023-02-27T05:47:45.201Z,-2.40
2023-02-27T05:51:49.312Z,-2.40
2023-02-27T05:55:53.576Z,-2.40
2023-02-27T06:00:03.080Z,-2.40
2023-02-27T06:04:07.283Z,-2.40
2023-02-27T06:08:11.281Z,-2.40
2023-02-27T06:12:14.208Z,-2.40
2023-02-27T06:16:17.062Z,-2.40
2023-02-27T06:20:21.319Z,-2.40
2023-02-27T06:24:24.097Z,-2.40
2023-02-27T06:28:26.921Z,-2.40
2023-02-27T06:32:32.609Z,-2.30
2023-02-27T06:36:36.767Z,-2.20
2023-02-27T06:40:39.594Z,-2.10
2023-02-27T06:44:42.380Z,-2.10
2023-02-27T06:48:45.630Z,-2.00
2023-02-27T06:52:49.797Z,-1.90
2023-02-27T06:56:52.907Z,-1.90
2023-02-27T07:00:55.729Z,-1.80
2023-02-27T07:04:58.594Z,-1.70
2023-02-27T07:09:06.256Z,-1.50
2023-02-27T07:13:10.215Z,-1.20
2023-02-27T07:17:41.817Z,-0.80
2023-02-27T07:21:44.618Z,-0.20
2023-02-27T07:25:48.944Z,0.60
2023-02-27T07:29:52.628Z,1.30
2023-02-27T07:33:55.459Z,1.80
2023-02-27T07:37:58.270Z,2.40
2023-02-27T07:42:02.408Z,2.60
2023-02-27T07:46:05.379Z,2.80
2023-02-27T07:50:08.589Z,2.80
2023-02-27T07:54:11.344Z,2.70
2023-02-27T07:58:15.803Z,2.50
2023-02-27T08:02:18.668Z,2.40
2023-02-27T08:06:21.906Z,2.30
2023-02-27T08:10:37.939Z,2.90
2023-02-27T08:14:42.072Z,3.00
2023-02-27T08:18:44.881Z,4.30
2023-02-27T08:22:47.755Z,4.70
2023-02-27T08:26:50.600Z,5.50
2023-02-27T08:30:55.033Z,6.30
2023-02-27T08:34:57.819Z,7.00
2023-02-27T08:39:00.620Z,7.90
2023-02-27T08:43:03.414Z,8.40
2023-02-27T08:47:07.846Z,8.90
2023-02-27T08:51:11.030Z,9.40
2023-02-27T08:55:14.953Z,9.80
2023-02-27T08:59:17.810Z,10.60
2023-02-27T09:03:22.517Z,10.80
2023-02-27T09:07:25.731Z,11.30
2023-02-27T09:11:29.096Z,11.90
2023-02-27T09:15:33.050Z,12.50
2023-02-27T09:19:37.269Z,13.10
2023-02-27T09:23:40.255Z,13.50
2023-02-27T09:27:43.120Z,13.90
2023-02-27T09:31:46.183Z,14.30
2023-02-27T09:35:50.457Z,15.10
2023-02-27T09:39:53.277Z,15.60
2023-02-27T09:43:56.167Z,15.80
2023-02-27T09:48:00.585Z,16.20
2023-02-27T09:56:09.024Z,16.60
2023-02-27T10:00:17.765Z,16.50
2023-02-27T10:04:25.483Z,17.10
2023-02-27T10:08:30.388Z,17.20
2023-02-27T10:12:42.916Z,17.50
2023-02-27T10:16:47.295Z,17.80
2023-02-27T10:20:52.355Z,18.00
2023-02-27T10:24:58.842Z,18.30
2023-02-27T10:33:08.800Z,18.60
2023-02-27T10:37:14.284Z,18.80
2023-02-27T10:41:18.621Z,19.00
2023-02-27T10:45:21.378Z,19.30
2023-02-27T10:49:25.545Z,19.60
2023-02-27T10:53:28.828Z,19.60
2023-02-27T10:57:33.583Z,19.70
2023-02-27T11:01:43.712Z,19.90
2023-02-27T11:10:00.008Z,20.20
2023-02-27T11:14:15.998Z,20.10
2023-02-27T11:18:25.620Z,20.00
2023-02-27T11:22:29.441Z,20.00
2023-02-27T11:26:35.514Z,19.70
2023-02-27T11:30:39.514Z,18.90
2023-02-27T11:34:48.443Z,18.00
2023-02-27T11:38:53.145Z,17.00
2023-02-27T11:42:59.428Z,16.20
2023-02-27T11:47:13.583Z,15.80
2023-02-27T11:51:22.589Z,15.90
2023-02-27T11:55:28.313Z,16.10
2023-02-27T11:59:40.172Z,16.20
2023-02-27T12:03:48.334Z,16.10
2023-02-27T12:07:54.315Z,15.80
2023-02-27T12:11:57.430Z,15.50
2023-02-27T12:16:02.990Z,15.10
2023-02-27T12:20:09.643Z,15.10
2023-02-27T12:24:17.851Z,14.90
2023-02-27T12:28:30.510Z,14.10
2023-02-27T12:32:39.933Z,14.00
2023-02-27T12:36:42.808Z,13.90
2023-02-27T12:40:47.812Z,14.10
2023-02-27T12:44:59.734Z,14.60
2023-02-27T12:49:14.810Z,15.50
2023-02-27T12:53:25.462Z,16.10
2023-02-27T12:57:38.201Z,16.90
2023-02-27T13:01:46.472Z,17.20
2023-02-27T13:05:54.580Z,17.50
2023-02-27T13:10:01.219Z,17.50
2023-02-27T13:14:07.282Z,16.90
2023-02-27T13:18:14.692Z,16.20
2023-02-27T13:22:21.527Z,15.40
2023-02-27T13:26:26.849Z,14.60
2023-02-27T13:30:33.526Z,13.90
2023-02-27T13:34:40.099Z,13.40
2023-02-27T13:38:45.009Z,12.90
2023-02-27T13:42:56.334Z,12.50
2023-02-27T13:47:24.091Z,12.20
2023-02-27T13:51:44.521Z,11.90
2023-02-27T13:55:48.722Z,11.60
2023-02-27T13:59:53.377Z,11.40
2023-02-27T14:03:58.280Z,11.20
2023-02-27T14:08:04.645Z,11.00
2023-02-27T14:12:30.903Z,10.90
2023-02-27T14:16:57.728Z,10.70
2023-02-27T14:21:00.668Z,10.60
2023-02-27T14:25:06.655Z,10.40
2023-02-27T14:29:17.617Z,10.20
2023-02-27T14:33:37.432Z,10.10
2023-02-27T14:37:41.066Z,9.90
2023-02-27T14:41:51.505Z,9.80
2023-02-27T14:45:56.239Z,9.70
2023-02-27T14:49:59.884Z,9.60
2023-02-27T14:54:06.003Z,9.60
2023-02-27T14:58:17.733Z,9.60
2023-02-27T15:02:26.156Z,9.60
2023-02-27T15:06:35.926Z,9.60
2023-02-27T15:10:43.290Z,9.50
2023-02-27T15:14:50.845Z,9.50
2023-02-27T15:18:56.969Z,9.50
2023-02-27T15:23:00.313Z,9.90
2023-02-27T15:27:07.418Z,10.30
2023-02-27T15:31:18.739Z,10.50
2023-02-27T15:35:27.020Z,10.50
2023-02-27T15:39:33.762Z,10.40
2023-02-27T15:43:37.400Z,10.30
2023-02-27T15:47:42.937Z,10.10
2023-02-27T15:52:01.189Z,10.00
2023-02-27T15:56:08.903Z,9.80
2023-02-27T16:00:14.181Z,9.70
2023-02-27T16:04:23.618Z,9.60
2023-02-27T16:08:31.839Z,9.50
2023-02-27T16:12:37.952Z,9.40
2023-02-27T16:16:41.226Z,9.20
2023-02-27T16:20:47.734Z,9.00
2023-02-27T16:24:54.709Z,8.90
2023-02-27T16:29:00.842Z,8.70
2023-02-27T16:33:04.067Z,8.60
2023-02-27T16:37:08.207Z,8.50
2023-02-27T16:41:15.971Z,8.40
2023-02-27T16:45:21.868Z,8.30
2023-02-27T16:49:28.088Z,8.20
2023-02-27T16:53:31.055Z,8.00
2023-02-27T16:57:35.539Z,7.80
2023-02-27T17:01:39.588Z,7.60
2023-02-27T17:05:42.611Z,7.50
2023-02-27T17:09:46.914Z,7.30
2023-02-27T17:13:52.336Z,7.20
2023-02-27T17:17:55.413Z,7.00
2023-02-27T17:21:59.422Z,6.90
2023-02-27T17:26:02.419Z,6.80
2023-02-27T17:30:08.315Z,6.70
2023-02-27T17:34:11.731Z,6.60
2023-02-27T17:38:14.686Z,6.50
2023-02-27T17:42:19.390Z,6.40
2023-02-27T17:46:24.647Z,6.30
2023-02-27T17:50:27.776Z,6.20
2023-02-27T17:54:33.378Z,6.10
2023-02-27T17:58:36.417Z,6.00
2023-02-27T18:02:40.902Z,5.90
2023-02-27T18:06:44.186Z,5.80
2023-02-27T18:10:50.819Z,5.70
2023-02-27T18:15:02.281Z,5.70
2023-02-27T18:19:07.277Z,5.60
2023-02-27T18:23:10.458Z,5.50
2023-02-27T18:27:13.506Z,5.50
2023-02-27T18:31:20.923Z,5.40
2023-02-27T18:35:26.180Z,5.40
2023-02-27T18:39:29.209Z,5.30
2023-02-27T18:43:33.249Z,5.30
2023-02-27T18:47:36.497Z,5.20
2023-02-27T18:51:40.872Z,5.20
2023-02-27T18:55:44.025Z,5.00
2023-02-27T18:59:47.555Z,5.00
2023-02-27T19:03:51.047Z,4.90
2023-02-27T19:07:55.362Z,4.80
2023-02-27T19:12:00.056Z,4.70
2023-02-27T19:16:05.755Z,4.60
2023-02-27T19:20:14.325Z,4.40
2023-02-27T19:24:18.709Z,4.30
2023-02-27T19:28:21.669Z,4.20
2023-02-27T19:32:24.716Z,4.10
2023-02-27T19:36:29.615Z,4.00
2023-02-27T19:40:34.099Z,3.90
2023-02-27T19:44:38.587Z,3.80
2023-02-27T19:48:42.901Z,3.70
2023-02-27T19:52:46.072Z,3.60
2023-02-27T19:56:52.726Z,3.50
2023-02-27T20:00:56.274Z,3.30
2023-02-27T20:05:00.709Z,3.30
2023-02-27T20:09:04.884Z,3.20
2023-02-27T20:13:12.258Z,3.10
2023-02-27T20:17:16.428Z,3.00
2023-02-27T20:21:22.800Z,2.90
2023-02-27T20:25:26.209Z,2.80
2023-02-27T20:29:31.046Z,2.80
2023-02-27T20:33:34.582Z,2.70
2023-02-27T20:37:38.225Z,2.60
2023-02-27T20:41:43.093Z,2.60
2023-02-27T20:45:49.023Z,2.60
2023-02-27T20:49:52.104Z,2.50
2023-02-27T20:53:57.179Z,2.50
2023-02-27T20:58:00.044Z,2.40
2023-02-27T21:02:06.903Z,2.30
2023-02-27T21:06:10.833Z,2.30
2023-02-27T21:10:15.008Z,2.20
2023-02-27T21:14:17.818Z,2.20
2023-02-27T21:18:21.950Z,2.10
2023-02-27T21:22:24.767Z,2.00
2023-02-27T21:26:29.008Z,1.90
2023-02-27T21:30:31.828Z,1.90
2023-02-27T21:34:36.099Z,1.80
2023-02-27T21:38:40.460Z,1.80
2023-02-27T21:42:44.714Z,1.70
2023-02-27T21:46:48.715Z,1.60
2023-02-27T21:50:53.029Z,1.60
2023-02-27T21:54:56.480Z,1.50
2023-02-27T21:59:01.834Z,1.50
2023-02-27T22:03:04.896Z,1.40
2023-02-27T22:07:11.359Z,1.40
2023-02-27T22:11:14.558Z,1.40
2023-02-27T22:15:17.714Z,1.30
2023-02-27T22:19:21.983Z,1.30
2023-02-27T22:23:27.097Z,1.30
2023-02-27T22:27:30.026Z,1.30
2023-02-27T22:31:34.360Z,1.30
2023-02-27T22:35:37.969Z,1.30
2023-02-27T22:39:43.253Z,1.30
2023-02-27T22:43:46.512Z,1.20
2023-02-27T22:47:49.370Z,1.20
2023-02-27T22:51:53.128Z,1.20
2023-02-27T22:55:58.405Z,1.20
2023-02-27T23:00:01.229Z,1.20
2023-02-27T23:04:06.144Z,1.20
2023-02-27T23:08:09.280Z,1.10
2023-02-27T23:12:19.649Z,1.10
2023-02-27T23:16:23.423Z,1.10
2023-02-27T23:20:26.534Z,1.00
2023-02-27T23:24:29.506Z,1.00
2023-02-27T23:28:35.811Z,0.90
2023-02-27T23:32:43.525Z,0.90
2023-02-27T23:36:46.470Z,0.90
2023-02-27T23:40:49.358Z,0.80
2023-02-27T23:44:53.489Z,0.80
2023-02-27T23:48:56.289Z,0.80
2023-02-27T23:53:00.049Z,0.80
2023-02-27T23:57:03.949Z,0.80
